sensor_id;sensor_type;location;lat;lon;timestamp;temperature;humidity
8939;DHT22;4504;48.810;9.172;2023-04-26T00:01:54;7.90;99.90
8939;DHT22;4504;48.810;9.172;2023-04-26T00:04:22;7.80;99.90
8939;DHT22;4504;48.810;9.172;2023-04-26T00:06:49;7.80;99.90
8939;DHT22;4504;48.810;9.172;2023-04-26T00:09:16;7.80;99.90
8939;DHT22;4504;48.810;9.172;2023-04-26T00:11:44;7.80;99.90
8939;DHT22;4504;48.810;9.172;2023-04-26T00:14:13;7.80;99.90
8939;DHT22;4504;48.810;9.172;2023-04-26T00:16:40;7.90;99.90
8939;DHT22;4504;48.810;9.172;2023-04-26T00:19:07;8.00;99.90
8939;DHT22;4504;48.810;9.172;2023-04-26T00:21:35;8.00;99.90
8939;DHT22;4504;48.810;9.172;2023-04-26T00:24:02;7.90;99.90
8939;DHT22;4504;48.810;9.172;2023-04-26T00:26:30;7.80;99.90
8939;DHT22;4504;48.810;9.172;2023-04-26T00:28:59;7.90;99.90
8939;DHT22;4504;48.810;9.172;2023-04-26T00:31:28;7.90;99.90
8939;DHT22;4504;48.810;9.172;2023-04-26T00:33:55;7.70;99.90
8939;DHT22;4504;48.810;9.172;2023-04-26T00:36:22;7.70;99.90
8939;DHT22;4504;48.810;9.172;2023-04-26T00:38:49;7.60;99.90
8939;DHT22;4504;48.810;9.172;2023-04-26T00:41:16;7.60;99.90
8939;DHT22;4504;48.810;9.172;2023-04-26T00:43:43;7.60;99.90
8939;DHT22;4504;48.810;9.172;2023-04-26T00:46:10;7.60;99.90
8939;DHT22;4504;48.810;9.172;2023-04-26T00:48:39;7.60;99.90
8939;DHT22;4504;48.810;9.172;2023-04-26T00:51:06;7.60;99.90
8939;DHT22;4504;48.810;9.172;2023-04-26T00:53:34;7.50;99.90
8939;DHT22;4504;48.810;9.172;2023-04-26T00:56:01;7.40;99.90
8939;DHT22;4504;48.810;9.172;2023-04-26T00:58:29;7.50;99.90
8939;DHT22;4504;48.810;9.172;2023-04-26T01:00:56;7.50;99.90
8939;DHT22;4504;48.810;9.172;2023-04-26T01:03:23;7.50;99.90
8939;DHT22;4504;48.810;9.172;2023-04-26T01:05:53;7.40;99.90
8939;DHT22;4504;48.810;9.172;2023-04-26T01:08:20;7.40;99.90
8939;DHT22;4504;48.810;9.172;2023-04-26T01:10:49;7.40;99.90
8939;DHT22;4504;48.810;9.172;2023-04-26T01:13:16;7.40;99.90
8939;DHT22;4504;48.810;9.172;2023-04-26T01:15:44;7.40;99.90
8939;DHT22;4504;48.810;9.172;2023-04-26T01:18:11;7.40;99.90
8939;DHT22;4504;48.810;9.172;2023-04-26T01:20:38;7.40;99.90
8939;DHT22;4504;48.810;9.172;2023-04-26T01:23:07;7.40;99.90
8939;DHT22;4504;48.810;9.172;2023-04-26T01:25:35;7.40;99.90
8939;DHT22;4504;48.810;9.172;2023-04-26T01:28:02;7.40;99.90
8939;DHT22;4504;48.810;9.172;2023-04-26T01:30:29;7.40;99.90
8939;DHT22;4504;48.810;9.172;2023-04-26T01:32:56;7.40;99.90
8939;DHT22;4504;48.810;9.172;2023-04-26T01:35:24;7.40;99.90
8939;DHT22;4504;48.810;9.172;2023-04-26T01:37:51;7.30;99.90
8939;DHT22;4504;48.810;9.172;2023-04-26T01:40:21;7.20;99.90
8939;DHT22;4504;48.810;9.172;2023-04-26T01:42:48;7.10;99.90
8939;DHT22;4504;48.810;9.172;2023-04-26T01:45:15;7.20;99.90
8939;DHT22;4504;48.810;9.172;2023-04-26T01:48:01;7.20;99.90
8939;DHT22;4504;48.810;9.172;2023-04-26T01:50:31;7.10;99.90
8939;DHT22;4504;48.810;9.172;2023-04-26T01:52:58;7.10;99.90
8939;DHT22;4504;48.810;9.172;2023-04-26T01:55:26;7.10;99.90
8939;DHT22;4504;48.810;9.172;2023-04-26T01:57:53;7.10;99.90
8939;DHT22;4504;48.810;9.172;2023-04-26T02:00:20;7.10;99.90
8939;DHT22;4504;48.810;9.172;2023-04-26T02:02:48;7.10;99.90
8939;DHT22;4504;48.810;9.172;2023-04-26T02:05:15;7.10;99.90
8939;DHT22;4504;48.810;9.172;2023-04-26T02:07:42;7.20;99.90
8939;DHT22;4504;48.810;9.172;2023-04-26T02:10:09;7.10;99.90
8939;DHT22;4504;48.810;9.172;2023-04-26T02:12:38;7.20;99.90
8939;DHT22;4504;48.810;9.172;2023-04-26T02:15:06;7.20;99.90
8939;DHT22;4504;48.810;9.172;2023-04-26T02:17:34;7.20;99.90
8939;DHT22;4504;48.810;9.172;2023-04-26T02:20:02;7.20;99.90
8939;DHT22;4504;48.810;9.172;2023-04-26T02:22:30;7.30;99.90
8939;DHT22;4504;48.810;9.172;2023-04-26T02:24:57;7.30;99.90
8939;DHT22;4504;48.810;9.172;2023-04-26T02:27:29;7.40;99.90
8939;DHT22;4504;48.810;9.172;2023-04-26T02:29:58;7.50;99.90
8939;DHT22;4504;48.810;9.172;2023-04-26T02:32:25;7.50;99.90
8939;DHT22;4504;48.810;9.172;2023-04-26T02:34:52;7.60;99.90
8939;DHT22;4504;48.810;9.172;2023-04-26T02:37:20;7.60;99.90
8939;DHT22;4504;48.810;9.172;2023-04-26T02:39:49;7.70;99.90
8939;DHT22;4504;48.810;9.172;2023-04-26T02:42:16;7.60;99.90
8939;DHT22;4504;48.810;9.172;2023-04-26T02:44:43;7.60;99.90
8939;DHT22;4504;48.810;9.172;2023-04-26T02:47:12;7.70;99.90
8939;DHT22;4504;48.810;9.172;2023-04-26T02:49:39;7.60;99.90
8939;DHT22;4504;48.810;9.172;2023-04-26T02:52:06;7.60;99.90
8939;DHT22;4504;48.810;9.172;2023-04-26T02:54:33;7.50;99.90
8939;DHT22;4504;48.810;9.172;2023-04-26T02:57:00;7.40;99.90
8939;DHT22;4504;48.810;9.172;2023-04-26T02:59:28;7.50;99.90
8939;DHT22;4504;48.810;9.172;2023-04-26T03:01:55;7.40;99.90
8939;DHT22;4504;48.810;9.172;2023-04-26T03:04:24;7.40;99.90
8939;DHT22;4504;48.810;9.172;2023-04-26T03:06:51;7.40;99.90
8939;DHT22;4504;48.810;9.172;2023-04-26T03:09:18;7.40;99.90
8939;DHT22;4504;48.810;9.172;2023-04-26T03:11:45;7.30;99.90
8939;DHT22;4504;48.810;9.172;2023-04-26T03:14:13;7.20;99.90
8939;DHT22;4504;48.810;9.172;2023-04-26T03:16:41;7.20;99.90
8939;DHT22;4504;48.810;9.172;2023-04-26T03:19:08;7.10;99.90
8939;DHT22;4504;48.810;9.172;2023-04-26T03:21:38;7.10;99.90
8939;DHT22;4504;48.810;9.172;2023-04-26T03:24:05;7.10;99.90
8939;DHT22;4504;48.810;9.172;2023-04-26T03:26:33;7.10;99.90
8939;DHT22;4504;48.810;9.172;2023-04-26T03:29:01;7.00;99.90
8939;DHT22;4504;48.810;9.172;2023-04-26T03:31:28;7.00;99.90
8939;DHT22;4504;48.810;9.172;2023-04-26T03:33:56;7.00;99.90
8939;DHT22;4504;48.810;9.172;2023-04-26T03:36:23;7.10;99.90
8939;DHT22;4504;48.810;9.172;2023-04-26T03:38:51;7.00;99.90
8939;DHT22;4504;48.810;9.172;2023-04-26T03:41:19;6.90;99.90
8939;DHT22;4504;48.810;9.172;2023-04-26T03:43:47;6.80;99.90
8939;DHT22;4504;48.810;9.172;2023-04-26T03:46:14;6.80;99.90
8939;DHT22;4504;48.810;9.172;2023-04-26T03:48:41;6.70;99.90
8939;DHT22;4504;48.810;9.172;2023-04-26T03:51:08;6.70;99.90
8939;DHT22;4504;48.810;9.172;2023-04-26T03:53:35;6.60;99.90
8939;DHT22;4504;48.810;9.172;2023-04-26T03:56:04;6.60;99.90
8939;DHT22;4504;48.810;9.172;2023-04-26T03:58:32;6.60;99.90
8939;DHT22;4504;48.810;9.172;2023-04-26T04:00:59;6.60;99.90
8939;DHT22;4504;48.810;9.172;2023-04-26T04:03:26;6.60;99.90
8939;DHT22;4504;48.810;9.172;2023-04-26T04:05:54;6.60;99.90
8939;DHT22;4504;48.810;9.172;2023-04-26T04:08:21;6.50;99.90
8939;DHT22;4504;48.810;9.172;2023-04-26T04:10:49;6.50;99.90
8939;DHT22;4504;48.810;9.172;2023-04-26T04:13:17;6.40;99.90
8939;DHT22;4504;48.810;9.172;2023-04-26T04:15:45;6.40;99.90
8939;DHT22;4504;48.810;9.172;2023-04-26T04:18:12;6.40;99.90
8939;DHT22;4504;48.810;9.172;2023-04-26T04:20:40;6.40;99.90
8939;DHT22;4504;48.810;9.172;2023-04-26T04:23:07;6.30;99.90
8939;DHT22;4504;48.810;9.172;2023-04-26T04:25:35;6.30;99.90
8939;DHT22;4504;48.810;9.172;2023-04-26T04:28:06;6.20;99.90
8939;DHT22;4504;48.810;9.172;2023-04-26T04:30:35;6.10;99.90
8939;DHT22;4504;48.810;9.172;2023-04-26T04:33:02;6.10;99.90
8939;DHT22;4504;48.810;9.172;2023-04-26T04:35:31;6.10;99.90
8939;DHT22;4504;48.810;9.172;2023-04-26T04:38:01;6.00;99.90
8939;DHT22;4504;48.810;9.172;2023-04-26T04:40:29;6.00;99.90
8939;DHT22;4504;48.810;9.172;2023-04-26T04:42:57;5.90;99.90
8939;DHT22;4504;48.810;9.172;2023-04-26T04:45:25;5.80;99.90
8939;DHT22;4504;48.810;9.172;2023-04-26T04:47:56;5.80;99.90
8939;DHT22;4504;48.810;9.172;2023-04-26T04:50:25;5.90;99.90
8939;DHT22;4504;48.810;9.172;2023-04-26T04:52:52;6.00;99.90
8939;DHT22;4504;48.810;9.172;2023-04-26T04:55:20;6.10;99.90
8939;DHT22;4504;48.810;9.172;2023-04-26T04:57:47;6.20;99.90
8939;DHT22;4504;48.810;9.172;2023-04-26T05:00:15;6.20;99.90
8939;DHT22;4504;48.810;9.172;2023-04-26T05:02:47;6.30;99.90
8939;DHT22;4504;48.810;9.172;2023-04-26T05:05:16;6.30;99.90
8939;DHT22;4504;48.810;9.172;2023-04-26T05:07:44;6.40;99.90
8939;DHT22;4504;48.810;9.172;2023-04-26T05:10:11;6.50;99.90
8939;DHT22;4504;48.810;9.172;2023-04-26T05:12:38;6.50;99.90
8939;DHT22;4504;48.810;9.172;2023-04-26T05:15:06;6.60;99.90
8939;DHT22;4504;48.810;9.172;2023-04-26T05:17:33;6.30;99.90
8939;DHT22;4504;48.810;9.172;2023-04-26T05:20:10;6.30;99.90
8939;DHT22;4504;48.810;9.172;2023-04-26T05:22:39;6.50;99.90
8939;DHT22;4504;48.810;9.172;2023-04-26T05:25:07;6.50;99.90
8939;DHT22;4504;48.810;9.172;2023-04-26T05:27:35;6.60;99.90
8939;DHT22;4504;48.810;9.172;2023-04-26T05:30:14;6.60;99.90
8939;DHT22;4504;48.810;9.172;2023-04-26T05:32:47;6.60;99.90
8939;DHT22;4504;48.810;9.172;2023-04-26T05:35:44;6.70;99.90
8939;DHT22;4504;48.810;9.172;2023-04-26T05:38:13;6.80;99.90
8939;DHT22;4504;48.810;9.172;2023-04-26T05:40:40;6.60;99.90
8939;DHT22;4504;48.810;9.172;2023-04-26T05:43:07;6.60;99.90
8939;DHT22;4504;48.810;9.172;2023-04-26T05:45:37;6.50;99.90
8939;DHT22;4504;48.810;9.172;2023-04-26T05:48:05;6.30;99.90
8939;DHT22;4504;48.810;9.172;2023-04-26T05:50:32;6.30;99.90
8939;DHT22;4504;48.810;9.172;2023-04-26T05:52:59;6.40;99.90
8939;DHT22;4504;48.810;9.172;2023-04-26T05:55:29;6.30;99.90
8939;DHT22;4504;48.810;9.172;2023-04-26T05:57:56;6.30;99.90
8939;DHT22;4504;48.810;9.172;2023-04-26T06:00:24;6.20;99.90
8939;DHT22;4504;48.810;9.172;2023-04-26T06:02:51;6.20;99.90
8939;DHT22;4504;48.810;9.172;2023-04-26T06:05:19;6.20;99.90
8939;DHT22;4504;48.810;9.172;2023-04-26T06:07:46;6.30;99.90
8939;DHT22;4504;48.810;9.172;2023-04-26T06:10:13;6.30;99.90
8939;DHT22;4504;48.810;9.172;2023-04-26T06:12:43;6.40;99.90
8939;DHT22;4504;48.810;9.172;2023-04-26T06:15:11;6.50;99.90
8939;DHT22;4504;48.810;9.172;2023-04-26T06:17:39;6.70;99.90
8939;DHT22;4504;48.810;9.172;2023-04-26T06:20:07;6.80;99.90
8939;DHT22;4504;48.810;9.172;2023-04-26T06:22:35;6.90;99.90
8939;DHT22;4504;48.810;9.172;2023-04-26T06:25:03;7.00;99.90
8939;DHT22;4504;48.810;9.172;2023-04-26T06:27:31;7.20;99.90
8939;DHT22;4504;48.810;9.172;2023-04-26T06:30:00;7.20;99.90
8939;DHT22;4504;48.810;9.172;2023-04-26T06:32:28;7.30;99.90
8939;DHT22;4504;48.810;9.172;2023-04-26T06:34:55;7.40;99.90
8939;DHT22;4504;48.810;9.172;2023-04-26T06:37:22;7.50;99.90
8939;DHT22;4504;48.810;9.172;2023-04-26T06:39:49;7.60;99.90
8939;DHT22;4504;48.810;9.172;2023-04-26T06:42:16;7.60;99.90
8939;DHT22;4504;48.810;9.172;2023-04-26T06:45:09;7.70;99.90
8939;DHT22;4504;48.810;9.172;2023-04-26T06:47:37;7.70;99.90
8939;DHT22;4504;48.810;9.172;2023-04-26T06:50:05;7.70;99.90
8939;DHT22;4504;48.810;9.172;2023-04-26T06:52:32;7.70;99.90
8939;DHT22;4504;48.810;9.172;2023-04-26T06:55:00;7.80;99.90
8939;DHT22;4504;48.810;9.172;2023-04-26T06:57:27;7.80;99.90
8939;DHT22;4504;48.810;9.172;2023-04-26T06:59:54;7.60;99.90
8939;DHT22;4504;48.810;9.172;2023-04-26T07:02:23;7.50;99.90
8939;DHT22;4504;48.810;9.172;2023-04-26T07:04:50;7.60;99.90
8939;DHT22;4504;48.810;9.172;2023-04-26T07:07:17;7.70;99.90
8939;DHT22;4504;48.810;9.172;2023-04-26T07:09:44;7.80;99.90
8939;DHT22;4504;48.810;9.172;2023-04-26T07:12:11;7.80;99.90
8939;DHT22;4504;48.810;9.172;2023-04-26T07:14:38;8.00;99.90
8939;DHT22;4504;48.810;9.172;2023-04-26T07:17:08;8.00;99.90
8939;DHT22;4504;48.810;9.172;2023-04-26T07:19:36;8.00;99.90
8939;DHT22;4504;48.810;9.172;2023-04-26T07:22:03;8.10;99.90
8939;DHT22;4504;48.810;9.172;2023-04-26T07:24:30;8.20;99.90
8939;DHT22;4504;48.810;9.172;2023-04-26T07:26:58;8.30;99.90
8939;DHT22;4504;48.810;9.172;2023-04-26T07:29:25;8.30;99.90
8939;DHT22;4504;48.810;9.172;2023-04-26T07:31:52;8.40;99.90
8939;DHT22;4504;48.810;9.172;2023-04-26T07:34:20;8.50;99.90
8939;DHT22;4504;48.810;9.172;2023-04-26T07:36:48;8.50;99.90
8939;DHT22;4504;48.810;9.172;2023-04-26T07:39:15;8.50;99.90
8939;DHT22;4504;48.810;9.172;2023-04-26T07:41:42;8.60;99.90
8939;DHT22;4504;48.810;9.172;2023-04-26T07:44:09;8.70;99.90
8939;DHT22;4504;48.810;9.172;2023-04-26T07:46:36;8.70;99.90
8939;DHT22;4504;48.810;9.172;2023-04-26T07:49:04;8.60;99.90
8939;DHT22;4504;48.810;9.172;2023-04-26T07:51:31;8.70;99.90
8939;DHT22;4504;48.810;9.172;2023-04-26T07:53:59;8.80;99.90
8939;DHT22;4504;48.810;9.172;2023-04-26T07:56:26;8.90;99.90
8939;DHT22;4504;48.810;9.172;2023-04-26T07:58:53;9.00;99.90
8939;DHT22;4504;48.810;9.172;2023-04-26T08:01:20;9.10;99.90
8939;DHT22;4504;48.810;9.172;2023-04-26T08:03:47;9.10;99.90
8939;DHT22;4504;48.810;9.172;2023-04-26T08:06:14;9.10;99.90
8939;DHT22;4504;48.810;9.172;2023-04-26T08:08:41;9.30;99.90
8939;DHT22;4504;48.810;9.172;2023-04-26T08:11:15;9.30;99.90
8939;DHT22;4504;48.810;9.172;2023-04-26T08:13:42;9.40;99.90
8939;DHT22;4504;48.810;9.172;2023-04-26T08:16:09;9.40;99.90
8939;DHT22;4504;48.810;9.172;2023-04-26T08:18:36;9.60;99.90
8939;DHT22;4504;48.810;9.172;2023-04-26T08:21:04;9.70;99.20
8939;DHT22;4504;48.810;9.172;2023-04-26T08:23:32;9.80;99.30
8939;DHT22;4504;48.810;9.172;2023-04-26T08:26:00;9.80;99.30
8939;DHT22;4504;48.810;9.172;2023-04-26T08:28:29;9.80;99.10
8939;DHT22;4504;48.810;9.172;2023-04-26T08:30:56;10.00;99.20
8939;DHT22;4504;48.810;9.172;2023-04-26T08:33:23;10.20;98.90
8939;DHT22;4504;48.810;9.172;2023-04-26T08:35:50;10.50;98.90
8939;DHT22;4504;48.810;9.172;2023-04-26T08:38:17;10.60;98.60
8939;DHT22;4504;48.810;9.172;2023-04-26T08:40:45;10.90;99.30
8939;DHT22;4504;48.810;9.172;2023-04-26T08:43:14;11.00;98.70
8939;DHT22;4504;48.810;9.172;2023-04-26T08:45:44;10.90;97.40
8939;DHT22;4504;48.810;9.172;2023-04-26T08:48:11;10.90;97.40
8939;DHT22;4504;48.810;9.172;2023-04-26T08:50:42;10.50;97.00
8939;DHT22;4504;48.810;9.172;2023-04-26T08:53:13;10.20;98.30
8939;DHT22;4504;48.810;9.172;2023-04-26T08:55:44;10.20;97.50
8939;DHT22;4504;48.810;9.172;2023-04-26T08:58:13;10.10;97.90
8939;DHT22;4504;48.810;9.172;2023-04-26T09:00:45;9.90;99.30
8939;DHT22;4504;48.810;9.172;2023-04-26T09:03:13;10.10;98.90
8939;DHT22;4504;48.810;9.172;2023-04-26T09:05:41;10.10;98.00
8939;DHT22;4504;48.810;9.172;2023-04-26T09:08:13;10.30;97.50
8939;DHT22;4504;48.810;9.172;2023-04-26T09:10:41;10.60;97.20
8939;DHT22;4504;48.810;9.172;2023-04-26T09:13:08;10.80;97.30
8939;DHT22;4504;48.810;9.172;2023-04-26T09:15:36;11.10;96.80
8939;DHT22;4504;48.810;9.172;2023-04-26T09:18:18;11.30;96.50
8939;DHT22;4504;48.810;9.172;2023-04-26T09:20:45;10.90;96.20
8939;DHT22;4504;48.810;9.172;2023-04-26T09:23:26;10.80;96.10
8939;DHT22;4504;48.810;9.172;2023-04-26T09:25:53;10.90;97.10
8939;DHT22;4504;48.810;9.172;2023-04-26T09:28:23;10.90;96.30
8939;DHT22;4504;48.810;9.172;2023-04-26T09:30:50;11.00;97.00
8939;DHT22;4504;48.810;9.172;2023-04-26T09:33:19;11.00;96.40
8939;DHT22;4504;48.810;9.172;2023-04-26T09:35:46;10.90;96.30
8939;DHT22;4504;48.810;9.172;2023-04-26T09:38:15;11.00;96.20
8939;DHT22;4504;48.810;9.172;2023-04-26T09:40:45;11.10;96.50
8939;DHT22;4504;48.810;9.172;2023-04-26T09:43:13;11.10;96.00
8939;DHT22;4504;48.810;9.172;2023-04-26T09:45:45;11.00;95.80
8939;DHT22;4504;48.810;9.172;2023-04-26T09:48:16;11.20;95.70
8939;DHT22;4504;48.810;9.172;2023-04-26T09:50:45;11.20;94.60
8939;DHT22;4504;48.810;9.172;2023-04-26T09:53:27;10.90;94.00
8939;DHT22;4504;48.810;9.172;2023-04-26T09:55:54;10.90;95.90
8939;DHT22;4504;48.810;9.172;2023-04-26T09:58:22;11.00;96.00
8939;DHT22;4504;48.810;9.172;2023-04-26T10:00:50;11.20;94.50
8939;DHT22;4504;48.810;9.172;2023-04-26T10:03:18;11.50;93.90
8939;DHT22;4504;48.810;9.172;2023-04-26T10:05:47;11.70;94.80
8939;DHT22;4504;48.810;9.172;2023-04-26T10:08:14;11.80;94.10
8939;DHT22;4504;48.810;9.172;2023-04-26T10:10:41;11.90;93.40
8939;DHT22;4504;48.810;9.172;2023-04-26T10:13:10;11.80;93.10
8939;DHT22;4504;48.810;9.172;2023-04-26T10:15:38;11.60;92.90
8939;DHT22;4504;48.810;9.172;2023-04-26T10:18:05;12.00;94.20
8939;DHT22;4504;48.810;9.172;2023-04-26T10:20:33;12.50;94.60
8939;DHT22;4504;48.810;9.172;2023-04-26T10:23:11;12.50;92.70
8939;DHT22;4504;48.810;9.172;2023-04-26T10:25:40;12.50;91.30
8939;DHT22;4504;48.810;9.172;2023-04-26T10:28:07;12.10;91.90
8939;DHT22;4504;48.810;9.172;2023-04-26T10:30:53;12.60;92.30
8939;DHT22;4504;48.810;9.172;2023-04-26T10:33:20;13.30;92.60
8939;DHT22;4504;48.810;9.172;2023-04-26T10:36:04;13.70;90.00
8939;DHT22;4504;48.810;9.172;2023-04-26T10:38:33;13.20;90.40
8939;DHT22;4504;48.810;9.172;2023-04-26T10:41:26;13.30;86.70
8939;DHT22;4504;48.810;9.172;2023-04-26T10:43:54;12.50;87.30
8939;DHT22;4504;48.810;9.172;2023-04-26T10:46:38;12.40;90.20
8939;DHT22;4504;48.810;9.172;2023-04-26T10:49:16;12.50;90.80
8939;DHT22;4504;48.810;9.172;2023-04-26T10:52:08;12.40;90.40
8939;DHT22;4504;48.810;9.172;2023-04-26T10:54:48;12.30;90.40
8939;DHT22;4504;48.810;9.172;2023-04-26T10:57:16;12.20;91.10
8939;DHT22;4504;48.810;9.172;2023-04-26T11:00:14;12.10;91.30
8939;DHT22;4504;48.810;9.172;2023-04-26T11:02:46;11.80;89.90
8939;DHT22;4504;48.810;9.172;2023-04-26T11:05:32;11.30;89.00
8939;DHT22;4504;48.810;9.172;2023-04-26T11:08:07;11.30;91.40
8939;DHT22;4504;48.810;9.172;2023-04-26T11:10:42;11.30;90.90
8939;DHT22;4504;48.810;9.172;2023-04-26T11:13:09;11.30;91.00
8939;DHT22;4504;48.810;9.172;2023-04-26T11:15:37;11.70;91.00
8939;DHT22;4504;48.810;9.172;2023-04-26T11:18:04;11.90;90.00
8939;DHT22;4504;48.810;9.172;2023-04-26T11:20:32;11.70;88.20
8939;DHT22;4504;48.810;9.172;2023-04-26T11:22:59;12.10;90.30
8939;DHT22;4504;48.810;9.172;2023-04-26T11:25:27;12.30;89.70
8939;DHT22;4504;48.810;9.172;2023-04-26T11:28:00;12.70;89.50
8939;DHT22;4504;48.810;9.172;2023-04-26T11:30:28;13.00;86.30
8939;DHT22;4504;48.810;9.172;2023-04-26T11:32:57;13.70;84.80
8939;DHT22;4504;48.810;9.172;2023-04-26T11:35:24;13.80;86.90
8939;DHT22;4504;48.810;9.172;2023-04-26T11:37:57;14.70;86.00
8939;DHT22;4504;48.810;9.172;2023-04-26T11:40:29;15.50;79.00
8939;DHT22;4504;48.810;9.172;2023-04-26T11:43:03;15.40;79.00
8939;DHT22;4504;48.810;9.172;2023-04-26T11:45:31;15.70;75.20
8939;DHT22;4504;48.810;9.172;2023-04-26T11:47:59;15.80;72.40
8939;DHT22;4504;48.810;9.172;2023-04-26T11:50:27;14.80;72.10
8939;DHT22;4504;48.810;9.172;2023-04-26T11:52:56;14.90;75.20
8939;DHT22;4504;48.810;9.172;2023-04-26T11:55:26;14.90;74.30
8939;DHT22;4504;48.810;9.172;2023-04-26T11:57:54;14.50;73.40
8939;DHT22;4504;48.810;9.172;2023-04-26T12:00:24;14.10;74.70
8939;DHT22;4504;48.810;9.172;2023-04-26T12:02:52;13.80;76.60
8939;DHT22;4504;48.810;9.172;2023-04-26T12:05:21;13.70;74.80
8939;DHT22;4504;48.810;9.172;2023-04-26T12:07:52;13.80;75.10
8939;DHT22;4504;48.810;9.172;2023-04-26T12:10:23;13.50;74.50
8939;DHT22;4504;48.810;9.172;2023-04-26T12:12:51;12.80;77.60
8939;DHT22;4504;48.810;9.172;2023-04-26T12:15:24;13.60;79.20
8939;DHT22;4504;48.810;9.172;2023-04-26T12:17:52;13.90;76.60
8939;DHT22;4504;48.810;9.172;2023-04-26T12:20:26;13.80;73.60
8939;DHT22;4504;48.810;9.172;2023-04-26T12:23:00;13.10;75.80
8939;DHT22;4504;48.810;9.172;2023-04-26T12:25:28;13.30;77.10
8939;DHT22;4504;48.810;9.172;2023-04-26T12:27:56;13.90;76.60
8939;DHT22;4504;48.810;9.172;2023-04-26T12:30:25;14.10;74.20
8939;DHT22;4504;48.810;9.172;2023-04-26T12:33:00;14.30;77.50
8939;DHT22;4504;48.810;9.172;2023-04-26T12:35:28;14.90;71.30
8939;DHT22;4504;48.810;9.172;2023-04-26T12:37:55;16.30;73.30
8939;DHT22;4504;48.810;9.172;2023-04-26T12:40:25;17.70;69.50
8939;DHT22;4504;48.810;9.172;2023-04-26T12:42:53;18.30;61.10
8939;DHT22;4504;48.810;9.172;2023-04-26T12:45:21;18.30;60.40
8939;DHT22;4504;48.810;9.172;2023-04-26T12:47:50;18.10;59.70
8939;DHT22;4504;48.810;9.172;2023-04-26T12:50:17;18.20;58.80
8939;DHT22;4504;48.810;9.172;2023-04-26T12:52:44;17.20;57.20
8939;DHT22;4504;48.810;9.172;2023-04-26T12:55:13;16.60;58.70
8939;DHT22;4504;48.810;9.172;2023-04-26T12:57:42;16.10;59.10
8939;DHT22;4504;48.810;9.172;2023-04-26T13:00:11;16.20;62.30
8939;DHT22;4504;48.810;9.172;2023-04-26T13:02:39;15.90;62.90
8939;DHT22;4504;48.810;9.172;2023-04-26T13:05:09;15.30;61.90
8939;DHT22;4504;48.810;9.172;2023-04-26T13:07:42;15.50;63.70
8939;DHT22;4504;48.810;9.172;2023-04-26T13:10:09;15.70;65.00
8939;DHT22;4504;48.810;9.172;2023-04-26T13:12:37;16.10;68.30
8939;DHT22;4504;48.810;9.172;2023-04-26T13:15:06;16.70;62.20
8939;DHT22;4504;48.810;9.172;2023-04-26T13:17:34;16.50;61.50
8939;DHT22;4504;48.810;9.172;2023-04-26T13:20:01;16.20;63.00
8939;DHT22;4504;48.810;9.172;2023-04-26T13:22:30;16.10;64.10
8939;DHT22;4504;48.810;9.172;2023-04-26T13:24:57;16.00;60.90
8939;DHT22;4504;48.810;9.172;2023-04-26T13:27:24;15.60;62.20
8939;DHT22;4504;48.810;9.172;2023-04-26T13:29:51;15.50;62.50
8939;DHT22;4504;48.810;9.172;2023-04-26T13:32:18;15.90;63.60
8939;DHT22;4504;48.810;9.172;2023-04-26T13:34:46;16.50;59.90
8939;DHT22;4504;48.810;9.172;2023-04-26T13:37:13;16.60;59.10
8939;DHT22;4504;48.810;9.172;2023-04-26T13:39:43;17.30;61.30
8939;DHT22;4504;48.810;9.172;2023-04-26T13:42:10;17.30;61.20
8939;DHT22;4504;48.810;9.172;2023-04-26T13:44:37;17.70;60.50
8939;DHT22;4504;48.810;9.172;2023-04-26T13:47:04;18.50;58.80
8939;DHT22;4504;48.810;9.172;2023-04-26T13:49:31;18.40;56.30
8939;DHT22;4504;48.810;9.172;2023-04-26T13:51:58;18.10;56.70
8939;DHT22;4504;48.810;9.172;2023-04-26T13:54:26;17.70;58.10
8939;DHT22;4504;48.810;9.172;2023-04-26T13:56:54;16.70;59.10
8939;DHT22;4504;48.810;9.172;2023-04-26T13:59:21;16.30;61.50
8939;DHT22;4504;48.810;9.172;2023-04-26T14:01:48;15.80;62.40
8939;DHT22;4504;48.810;9.172;2023-04-26T14:04:15;15.30;65.80
8939;DHT22;4504;48.810;9.172;2023-04-26T14:06:42;15.60;66.70
8939;DHT22;4504;48.810;9.172;2023-04-26T14:09:09;15.60;66.20
8939;DHT22;4504;48.810;9.172;2023-04-26T14:11:36;15.10;65.10
8939;DHT22;4504;48.810;9.172;2023-04-26T14:14:05;14.10;66.40
8939;DHT22;4504;48.810;9.172;2023-04-26T14:16:32;13.80;68.80
8939;DHT22;4504;48.810;9.172;2023-04-26T14:19:00;14.20;71.50
8939;DHT22;4504;48.810;9.172;2023-04-26T14:21:27;14.80;68.40
8939;DHT22;4504;48.810;9.172;2023-04-26T14:23:55;15.60;67.10
8939;DHT22;4504;48.810;9.172;2023-04-26T14:26:23;16.20;65.10
8939;DHT22;4504;48.810;9.172;2023-04-26T14:28:51;16.20;64.70
8939;DHT22;4504;48.810;9.172;2023-04-26T14:31:20;16.30;64.60
8939;DHT22;4504;48.810;9.172;2023-04-26T14:33:49;16.80;62.10
8939;DHT22;4504;48.810;9.172;2023-04-26T14:36:16;17.30;59.80
8939;DHT22;4504;48.810;9.172;2023-04-26T14:38:44;17.70;58.60
8939;DHT22;4504;48.810;9.172;2023-04-26T14:41:13;18.50;58.00
8939;DHT22;4504;48.810;9.172;2023-04-26T14:43:40;18.90;57.30
8939;DHT22;4504;48.810;9.172;2023-04-26T14:46:07;18.70;57.50
8939;DHT22;4504;48.810;9.172;2023-04-26T14:48:36;18.30;58.90
8939;DHT22;4504;48.810;9.172;2023-04-26T14:51:03;17.20;59.00
8939;DHT22;4504;48.810;9.172;2023-04-26T14:53:30;15.90;61.10
8939;DHT22;4504;48.810;9.172;2023-04-26T14:55:58;15.70;62.50
8939;DHT22;4504;48.810;9.172;2023-04-26T14:58:25;15.90;64.20
8939;DHT22;4504;48.810;9.172;2023-04-26T15:00:53;16.60;63.50
8939;DHT22;4504;48.810;9.172;2023-04-26T15:03:20;16.70;60.80
8939;DHT22;4504;48.810;9.172;2023-04-26T15:05:48;16.30;60.30
8939;DHT22;4504;48.810;9.172;2023-04-26T15:08:15;16.30;62.00
8939;DHT22;4504;48.810;9.172;2023-04-26T15:10:42;16.50;61.40
8939;DHT22;4504;48.810;9.172;2023-04-26T15:13:09;16.80;60.50
8939;DHT22;4504;48.810;9.172;2023-04-26T15:15:36;16.60;60.70
8939;DHT22;4504;48.810;9.172;2023-04-26T15:18:04;17.10;61.80
8939;DHT22;4504;48.810;9.172;2023-04-26T15:20:31;18.00;59.70
8939;DHT22;4504;48.810;9.172;2023-04-26T15:22:59;18.10;56.80
8939;DHT22;4504;48.810;9.172;2023-04-26T15:25:26;17.70;57.50
8939;DHT22;4504;48.810;9.172;2023-04-26T15:27:53;17.50;58.40
8939;DHT22;4504;48.810;9.172;2023-04-26T15:30:22;17.10;59.70
8939;DHT22;4504;48.810;9.172;2023-04-26T15:32:49;17.10;60.60
8939;DHT22;4504;48.810;9.172;2023-04-26T15:35:16;17.40;59.00
8939;DHT22;4504;48.810;9.172;2023-04-26T15:37:43;17.50;59.50
8939;DHT22;4504;48.810;9.172;2023-04-26T15:40:12;17.70;58.60
8939;DHT22;4504;48.810;9.172;2023-04-26T15:42:39;17.90;59.20
8939;DHT22;4504;48.810;9.172;2023-04-26T15:45:07;18.30;57.20
8939;DHT22;4504;48.810;9.172;2023-04-26T15:47:34;17.80;57.70
8939;DHT22;4504;48.810;9.172;2023-04-26T15:50:02;17.40;58.30
8939;DHT22;4504;48.810;9.172;2023-04-26T15:52:32;17.10;58.50
8939;DHT22;4504;48.810;9.172;2023-04-26T15:55:00;16.70;59.00
8939;DHT22;4504;48.810;9.172;2023-04-26T15:57:28;16.50;63.10
8939;DHT22;4504;48.810;9.172;2023-04-26T15:59:56;16.60;60.80
8939;DHT22;4504;48.810;9.172;2023-04-26T16:02:23;16.40;61.60
8939;DHT22;4504;48.810;9.172;2023-04-26T16:04:50;16.40;61.90
8939;DHT22;4504;48.810;9.172;2023-04-26T16:07:17;16.20;62.30
8939;DHT22;4504;48.810;9.172;2023-04-26T16:09:45;16.10;63.00
8939;DHT22;4504;48.810;9.172;2023-04-26T16:12:12;16.00;65.20
8939;DHT22;4504;48.810;9.172;2023-04-26T16:14:40;16.30;66.20
8939;DHT22;4504;48.810;9.172;2023-04-26T16:17:07;17.00;62.70
8939;DHT22;4504;48.810;9.172;2023-04-26T16:19:34;17.40;59.60